Time;durP1;ratioP1;P1;durP2;ratioP2;P2;SDS_P1;SDS_P2;PMS_P1;PMS_P2;Temp;Humidity;BMP_temperature;BMP_pressure;BME280_temperature;BME280_humidity;BME280_pressure;Samples;Min_cycle;Max_cycle;Signal;HPM_P1;HPM_P2
2022/03/11 00:01:00;;;;;;;9.03;5.93;;;;;;;-1.61;62.93;95788.25;5037136;27;20659;-71
2022/03/11 00:03:28;;;;;;;7.93;6.47;;;;;;;-1.54;62.90;95790.94;5044729;27;22351;-72
2022/03/11 00:05:57;;;;;;;11.77;6.93;;;;;;;-1.43;63.10;95788.69;5039392;27;20662;-71
2022/03/11 00:08:24;;;;;;;8.83;6.73;;;;;;;-1.41;63.26;95792.91;5030729;27;20202;-72
2022/03/11 00:10:51;;;;;;;9.67;6.70;;;;;;;-1.48;63.89;95782.72;5024243;27;21919;-72
2022/03/11 00:13:17;;;;;;;15.00;8.33;;;;;;;-1.44;63.83;95787.00;5027894;27;20283;-71
2022/03/11 00:15:44;;;;;;;10.00;7.23;;;;;;;-1.28;63.18;95790.69;5026951;27;20880;-72
2022/03/11 00:18:11;;;;;;;10.53;7.23;;;;;;;-1.24;63.28;95789.97;5026739;27;20208;-71
2022/03/11 00:20:38;;;;;;;16.63;8.67;;;;;;;-1.71;65.22;95783.03;5027270;27;20204;-72
2022/03/11 00:23:06;;;;;;;13.73;7.60;;;;;;;-1.50;64.95;95782.72;5021225;27;20286;-71
2022/03/11 00:25:33;;;;;;;16.67;10.50;;;;;;;-1.51;65.02;95786.03;5028923;27;20676;-73
2022/03/11 00:28:00;;;;;;;12.27;7.67;;;;;;;-1.65;64.28;95777.34;5026051;27;20211;-72
2022/03/11 00:30:28;;;;;;;13.80;8.77;;;;;;;-1.34;63.97;95771.44;5028604;27;20231;-72
2022/03/11 00:32:55;;;;;;;20.50;10.07;;;;;;;-1.15;63.59;95775.19;5031293;27;20211;-71
2022/03/11 00:35:22;;;;;;;21.43;11.60;;;;;;;-1.29;64.64;95771.56;5024584;27;20339;-71
2022/03/11 00:37:48;;;;;;;24.93;11.93;;;;;;;-1.46;65.44;95767.00;5023627;27;20207;-72
2022/03/11 00:40:17;;;;;;;9.27;8.10;;;;;;;-1.60;65.24;95770.84;5026090;27;20210;-71
2022/03/11 00:42:44;;;;;;;15.37;8.13;;;;;;;-1.51;64.56;95761.09;5020538;27;20742;-71
2022/03/11 00:45:11;;;;;;;15.80;9.47;;;;;;;-1.40;65.01;95767.16;5035374;27;20207;-72
2022/03/11 00:47:38;;;;;;;23.50;11.13;;;;;;;-1.14;64.21;95766.91;5029396;27;20252;-71
2022/03/11 00:50:06;;;;;;;16.40;9.87;;;;;;;-1.02;64.11;95766.34;5033712;27;20622;-72
2022/03/11 00:52:33;;;;;;;15.53;8.90;;;;;;;-1.33;65.05;95765.66;5025268;27;20202;-73
2022/03/11 00:54:59;;;;;;;19.30;9.37;;;;;;;-1.40;64.85;95764.66;5034636;27;20242;-71
2022/03/11 00:57:28;;;;;;;15.53;9.67;;;;;;;-1.52;66.33;95758.56;5032833;27;20615;-71
2022/03/11 00:59:54;;;;;;;13.83;8.87;;;;;;;-1.58;66.77;95764.25;5025109;27;20203;-71
2022/03/11 01:02:21;;;;;;;15.43;10.67;;;;;;;-1.57;66.77;95758.44;5029876;27;20203;-71
2022/03/11 01:04:49;;;;;;;19.30;10.67;;;;;;;-1.50;66.39;95757.78;5028990;27;20253;-71
2022/03/11 01:07:17;;;;;;;16.33;9.83;;;;;;;-1.20;65.88;95762.63;5021336;27;20213;-71
2022/03/11 01:09:43;;;;;;;15.37;10.00;;;;;;;-1.13;64.97;95759.47;5027313;27;20203;-72
2022/03/11 01:12:10;;;;;;;17.53;9.10;;;;;;;-1.13;64.81;95763.59;5028708;27;20662;-71
2022/03/11 01:14:39;;;;;;;16.60;9.80;;;;;;;-1.09;64.70;95761.22;5028850;27;20683;-71
2022/03/11 01:17:06;;;;;;;14.00;9.07;;;;;;;-1.05;64.17;95762.97;5030946;27;20256;-70
2022/03/11 01:19:33;;;;;;;13.50;9.37;;;;;;;-1.30;64.87;95773.22;5035036;27;20210;-70
2022/03/11 01:22:00;;;;;;;12.13;8.70;;;;;;;-1.31;64.94;95766.53;5036178;27;20377;-70
2022/03/11 01:24:27;;;;;;;16.07;8.90;;;;;;;-1.31;64.76;95778.16;5049612;27;20396;-73
2022/03/11 01:26:53;;;;;;;16.53;9.13;;;;;;;-1.41;65.02;95772.94;5045162;27;20619;-72
2022/03/11 01:29:20;;;;;;;12.47;8.20;;;;;;;-1.38;65.34;95775.53;5055063;27;20199;-72
2022/03/11 01:31:48;;;;;;;13.73;9.13;;;;;;;-1.23;64.81;95779.16;5039881;27;20208;-72
2022/03/11 01:34:15;;;;;;;23.13;10.60;;;;;;;-1.22;64.78;95768.38;5049184;27;20215;-72
2022/03/11 01:36:42;;;;;;;15.80;10.17;;;;;;;-1.16;64.29;95768.53;5042781;27;20317;-73
2022/03/11 01:39:09;;;;;;;17.77;9.30;;;;;;;-1.32;64.88;95769.00;5042799;27;20214;-72
2022/03/11 01:41:35;;;;;;;16.63;9.40;;;;;;;-1.08;64.31;95757.06;5037853;27;20210;-72
2022/03/11 01:44:04;;;;;;;16.63;9.93;;;;;;;-1.41;65.04;95764.63;5024328;27;20868;-72
2022/03/11 01:46:31;;;;;;;16.63;10.13;;;;;;;-1.47;65.76;95767.81;5034614;27;20729;-73
2022/03/11 01:49:01;;;;;;;17.13;10.40;;;;;;;-1.57;66.60;95768.41;5035771;27;20240;-73
2022/03/11 01:51:28;;;;;;;12.80;9.60;;;;;;;-1.45;66.31;95771.19;5033433;27;20203;-70
2022/03/11 01:53:55;;;;;;;16.67;9.47;;;;;;;-1.20;65.73;95761.78;5033525;27;20203;-72
2022/03/11 01:56:24;;;;;;;20.00;10.90;;;;;;;-1.57;66.25;95765.94;5028190;27;20241;-72
2022/03/11 01:58:52;;;;;;;17.17;9.77;;;;;;;-1.72;66.78;95760.56;5026217;27;20203;-71
2022/03/11 02:01:20;;;;;;;14.77;10.00;;;;;;;-1.72;66.76;95760.56;5023637;27;20200;-71
2022/03/11 02:03:47;;;;;;;25.33;12.13;;;;;;;-2.01;66.99;95759.00;5027764;27;20203;-70
2022/03/11 02:06:16;;;;;;;17.30;11.13;;;;;;;-2.10;67.72;95757.97;5032809;27;20211;-71
2022/03/11 02:08:44;;;;;;;16.50;10.67;;;;;;;-2.12;67.88;95758.72;5021941;27;20203;-72
2022/03/11 02:11:12;;;;;;;18.97;10.60;;;;;;;-1.98;67.76;95766.56;5028409;27;20202;-70
2022/03/11 02:13:44;;;;;;;17.90;10.53;;;;;;;-1.86;66.82;95759.38;5028540;27;20207;-70
2022/03/11 02:16:12;;;;;;;21.60;11.00;;;;;;;-1.76;66.34;95758.81;5026057;27;20226;-72
2022/03/11 02:18:39;;;;;;;15.13;11.00;;;;;;;-2.02;67.54;95765.63;5036233;27;20648;-71
2022/03/11 02:21:06;;;;;;;17.50;11.23;;;;;;;-2.19;67.33;95755.22;5041665;27;20238;-71
2022/03/11 02:23:42;;;;;;;17.67;11.00;;;;;;;-2.40;69.34;95765.47;5026932;27;20674;-71
2022/03/11 02:26:09;;;;;;;16.80;10.93;;;;;;;-2.31;68.84;95766.50;5028586;27;20198;-71
2022/03/11 02:28:36;;;;;;;19.13;10.83;;;;;;;-2.18;68.31;95754.41;5026344;27;20191;-71
2022/03/11 02:31:03;;;;;;;22.50;12.13;;;;;;;-2.15;68.12;95763.63;5029115;27;20239;-71
2022/03/11 02:33:29;;;;;;;21.83;11.83;;;;;;;-2.09;67.85;95769.59;5021712;27;20513;-70
2022/03/11 02:35:56;;;;;;;17.00;11.90;;;;;;;-2.54;69.27;95778.34;5050367;27;20286;-72
2022/03/11 02:38:23;;;;;;;22.03;12.67;;;;;;;-2.67;69.93;95771.31;5051685;27;20742;-72
2022/03/11 02:40:51;;;;;;;23.50;12.80;;;;;;;-2.61;69.56;95766.53;5039262;27;20199;-71
2022/03/11 02:43:18;;;;;;;23.50;12.00;;;;;;;-2.45;69.40;95769.47;5042848;27;22061;-71
2022/03/11 02:45:45;;;;;;;23.75;15.32;;;;;;;-2.30;68.42;95773.19;5042829;27;20585;-71
2022/03/11 02:48:11;;;;;;;33.07;13.83;;;;;;;-2.26;68.23;95775.81;5052567;27;20741;-70
2022/03/11 02:50:38;;;;;;;23.53;11.80;;;;;;;-2.29;68.22;95780.69;5051041;27;20260;-71
2022/03/11 02:53:05;;;;;;;19.70;11.83;;;;;;;-2.64;69.70;95782.19;5047949;27;20268;-71
2022/03/11 02:55:32;;;;;;;17.03;10.57;;;;;;;-2.92;70.26;95775.59;5050076;27;20227;-71
2022/03/11 02:58:00;;;;;;;17.57;11.00;;;;;;;-3.03;71.08;95784.41;5044126;27;20693;-72
2022/03/11 03:00:27;;;;;;;23.80;12.00;;;;;;;-3.02;71.42;95793.53;5054488;27;20200;-71
2022/03/11 03:02:54;;;;;;;19.17;11.00;;;;;;;-2.98;71.71;95795.31;5045178;27;20209;-72
2022/03/11 03:05:21;;;;;;;18.33;10.87;;;;;;;-2.84;71.14;95789.09;5041791;27;20253;-72
2022/03/11 03:07:47;;;;;;;16.63;10.40;;;;;;;-2.57;69.72;95789.03;5037257;27;20279;-71
2022/03/11 03:10:14;;;;;;;21.47;11.33;;;;;;;-2.37;69.58;95782.13;5035171;27;20251;-71
2022/03/11 03:12:41;;;;;;;17.13;11.37;;;;;;;-2.36;68.89;95783.81;5036765;27;20199;-71
2022/03/11 03:15:10;;;;;;;20.13;11.70;;;;;;;-2.30;68.48;95783.97;5052703;27;20287;-72
2022/03/11 03:17:38;;;;;;;24.57;11.43;;;;;;;-2.25;68.46;95786.59;5051812;27;20251;-71
2022/03/11 03:20:08;;;;;;;16.20;11.83;;;;;;;-2.21;68.06;95794.16;5049905;27;20766;-71
2022/03/11 03:22:35;;;;;;;19.80;12.20;;;;;;;-2.48;68.75;95789.31;5045642;27;20272;-71
2022/03/11 03:25:03;;;;;;;19.43;12.13;;;;;;;-2.56;69.43;95789.88;5038342;27;20207;-71
2022/03/11 03:27:30;;;;;;;21.47;11.47;;;;;;;-2.43;69.18;95795.25;5046763;27;20243;-72
2022/03/11 03:29:58;;;;;;;18.40;12.70;;;;;;;-2.29;69.13;95795.63;5037890;27;20288;-72
2022/03/11 03:32:26;;;;;;;26.60;11.77;;;;;;;-2.22;67.74;95789.16;5045564;27;20200;-71
2022/03/11 03:34:52;;;;;;;23.20;10.93;;;;;;;-2.26;68.31;95789.91;5053805;27;20223;-73
2022/03/11 03:37:19;;;;;;;12.70;10.80;;;;;;;-2.20;67.73;95785.06;5046965;27;20204;-71
2022/03/11 03:39:46;;;;;;;20.60;11.83;;;;;;;-2.40;67.81;95797.81;5034654;27;20571;-71
2022/03/11 03:42:13;;;;;;;21.30;12.27;;;;;;;-2.53;68.41;95792.47;5042516;27;20231;-72
2022/03/11 03:44:40;;;;;;;20.47;12.00;;;;;;;-2.64;69.12;95791.31;5042483;27;20234;-71
2022/03/11 03:47:07;;;;;;;21.77;12.00;;;;;;;-2.46;68.72;95794.31;5045390;27;20264;-71
2022/03/11 03:49:35;;;;;;;18.93;11.57;;;;;;;-2.42;68.72;95796.94;5038525;27;20226;-71
2022/03/11 03:52:05;;;;;;;17.60;10.87;;;;;;;-2.64;68.46;95787.19;5035285;27;20267;-71
2022/03/11 03:54:32;;;;;;;20.20;11.50;;;;;;;-2.50;68.32;95798.38;5046410;27;20659;-72
2022/03/11 03:56:59;;;;;;;19.43;11.00;;;;;;;-2.31;68.34;95792.25;5041770;27;20266;-72
2022/03/11 03:59:26;;;;;;;20.90;11.97;;;;;;;-2.46;68.10;95800.13;5039458;27;20203;-72
2022/03/11 04:01:52;;;;;;;19.70;11.67;;;;;;;-2.48;68.58;95803.41;5046271;27;20196;-71
2022/03/11 04:04:19;;;;;;;19.13;10.93;;;;;;;-2.45;68.65;95803.47;5035198;27;20191;-72
2022/03/11 04:06:47;;;;;;;20.00;11.37;;;;;;;-2.61;69.16;95806.31;5045530;27;20195;-72
2022/03/11 04:09:14;;;;;;;21.23;12.53;;;;;;;-3.14;70.57;95808.06;5053007;27;20203;-72
2022/03/11 04:11:41;;;;;;;21.40;11.93;;;;;;;-3.06;70.53;95815.78;5045701;27;20671;-72
2022/03/11 04:14:09;;;;;;;18.07;11.67;;;;;;;-2.91;70.13;95816.22;5036391;27;20726;-72
2022/03/11 04:16:35;;;;;;;21.10;10.93;;;;;;;-2.66;68.88;95817.78;5044237;27;20716;-73
2022/03/11 04:19:02;;;;;;;23.50;11.20;;;;;;;-2.95;69.29;95820.25;5040918;27;20569;-72
2022/03/11 04:21:29;;;;;;;25.80;14.73;;;;;;;-2.79;68.49;95827.41;5050185;27;20203;-73
2022/03/11 04:23:57;;;;;;;34.43;20.10;;;;;;;-2.93;68.92;95821.16;5041130;27;20200;-70
2022/03/11 04:26:24;;;;;;;46.07;21.63;;;;;;;-3.20;69.37;95826.13;5035377;27;20199;-73
2022/03/11 04:28:51;;;;;;;59.03;23.70;;;;;;;-3.19;69.67;95825.31;5048993;27;20233;-70
2022/03/11 04:31:18;;;;;;;47.73;21.57;;;;;;;-3.25;69.99;95825.16;5041802;27;20291;-71
2022/03/11 04:33:44;;;;;;;37.67;18.80;;;;;;;-3.42;70.28;95827.09;5043166;27;20315;-72
2022/03/11 04:36:11;;;;;;;23.30;13.10;;;;;;;-3.38;70.45;95829.69;5052789;27;20242;-72
2022/03/11 04:38:39;;;;;;;20.13;12.83;;;;;;;-3.20;69.67;95835.22;5052477;27;20264;-74
2022/03/11 04:41:07;;;;;;;21.77;10.90;;;;;;;-3.27;69.72;95830.88;5045217;27;20283;-72
2022/03/11 04:43:34;;;;;;;17.07;9.73;;;;;;;-3.50;70.31;95828.50;5048231;27;20204;-72
2022/03/11 04:46:01;;;;;;;16.50;9.60;;;;;;;-3.21;70.00;95816.13;5045008;27;20260;-71
2022/03/11 04:48:28;;;;;;;22.87;10.77;;;;;;;-3.02;69.13;95823.38;5049501;27;20199;-72
2022/03/11 04:50:56;;;;;;;27.67;11.00;;;;;;;-2.81;68.18;95831.47;5055473;27;20199;-71
2022/03/11 04:53:22;;;;;;;26.48;13.60;;;;;;;-2.81;68.06;95833.13;5059549;27;20445;-72
2022/03/11 04:55:49;;;;;;;24.77;13.73;;;;;;;-2.98;68.53;95830.13;5047435;27;20466;-72
2022/03/11 04:58:17;;;;;;;16.93;11.50;;;;;;;-3.23;68.77;95827.69;5054200;27;20203;-72
2022/03/11 05:00:44;;;;;;;20.13;11.30;;;;;;;-3.60;69.04;95821.53;5057739;27;20263;-71
2022/03/11 05:03:11;;;;;;;16.07;10.10;;;;;;;-3.53;69.93;95838.34;5051796;27;20251;-73
2022/03/11 05:05:38;;;;;;;21.50;10.60;;;;;;;-3.45;69.90;95836.94;5053993;27;20199;-73
2022/03/11 05:08:05;;;;;;;18.33;10.30;;;;;;;-3.38;69.73;95847.06;5046437;27;20210;-72
2022/03/11 05:10:32;;;;;;;21.20;10.83;;;;;;;-3.31;69.40;95836.53;5046805;27;20641;-72
2022/03/11 05:12:59;;;;;;;16.83;9.73;;;;;;;-3.29;69.35;95842.41;5050533;27;20211;-72
2022/03/11 05:15:27;;;;;;;17.73;9.13;;;;;;;-3.20;69.19;95847.66;5045780;27;20203;-71
2022/03/11 05:17:54;;;;;;;22.33;8.87;;;;;;;-3.11;69.15;95848.78;5050389;27;20210;-72
2022/03/11 05:20:20;;;;;;;17.50;8.97;;;;;;;-3.03;68.19;95841.59;5058714;27;20260;-71
2022/03/11 05:22:47;;;;;;;22.33;9.97;;;;;;;-2.78;68.00;95848.97;5037116;27;20664;-74
2022/03/11 05:25:14;;;;;;;20.67;10.23;;;;;;;-2.52;67.25;95856.38;5049503;27;20264;-72
2022/03/11 05:27:41;;;;;;;18.17;12.00;;;;;;;-2.49;66.71;95853.97;5047255;27;20620;-73
2022/03/11 05:30:09;;;;;;;23.47;13.67;;;;;;;-2.59;67.58;95854.50;5041671;27;20356;-73
2022/03/11 05:32:42;;;;;;;22.73;13.63;;;;;;;-2.36;67.42;95863.47;5043780;27;20200;-70
2022/03/11 05:35:10;;;;;;;22.30;11.80;;;;;;;-2.31;66.35;95854.50;5048854;27;20724;-73
2022/03/11 05:37:36;;;;;;;24.30;13.27;;;;;;;-2.13;65.67;95867.44;5051929;27;20294;-73
2022/03/11 05:40:04;;;;;;;31.53;15.90;;;;;;;-2.19;64.93;95849.84;5061402;27;20696;-72
2022/03/11 05:42:31;;;;;;;31.10;18.43;;;;;;;-2.11;64.75;95869.97;5051541;27;20237;-72
2022/03/11 05:44:57;;;;;;;36.23;17.87;;;;;;;-2.10;64.63;95872.50;5055733;27;20214;-73
2022/03/11 05:47:24;;;;;;;27.83;14.40;;;;;;;-1.99;64.85;95879.44;5055579;27;20579;-71
2022/03/11 05:49:54;;;;;;;26.37;13.53;;;;;;;-2.22;65.30;95871.31;5043537;27;20648;-72
2022/03/11 05:52:21;;;;;;;87.53;36.93;;;;;;;-2.46;66.74;95861.50;5066174;27;20204;-73
2022/03/11 05:54:48;;;;;;;48.37;22.53;;;;;;;-2.86;68.63;95870.28;5042216;27;20218;-73
2022/03/11 05:57:15;;;;;;;38.30;16.63;;;;;;;-3.00;69.13;95860.72;5045298;27;20231;-73
2022/03/11 05:59:42;;;;;;;33.57;14.57;;;;;;;-2.48;67.98;95873.09;5052775;27;20200;-72
2022/03/11 06:02:09;;;;;;;29.67;12.83;;;;;;;-2.30;66.82;95871.13;5048702;27;20295;-72
2022/03/11 06:04:37;;;;;;;23.20;12.10;;;;;;;-2.25;67.27;95871.25;5043351;27;20203;-72
2022/03/11 06:07:05;;;;;;;22.27;12.57;;;;;;;-1.89;67.03;95872.25;5053505;27;20207;-72
2022/03/11 06:09:32;;;;;;;25.27;13.20;;;;;;;-1.54;65.89;95875.69;5045530;27;20204;-72
2022/03/11 06:11:59;;;;;;;23.40;14.90;;;;;;;-1.28;64.42;95882.97;5053726;27;20214;-74
2022/03/11 06:14:25;;;;;;;23.77;14.80;;;;;;;-0.94;62.69;95875.47;5048621;27;20196;-72
2022/03/11 06:16:52;;;;;;;29.90;15.93;;;;;;;-0.66;62.42;95888.59;5057081;27;20230;-73
2022/03/11 06:19:19;;;;;;;29.30;16.60;;;;;;;-0.82;63.17;95882.41;5059173;27;20259;-73
2022/03/11 06:21:46;;;;;;;27.80;15.50;;;;;;;-0.59;62.72;95887.91;5053760;27;20231;-75
2022/03/11 06:24:14;;;;;;;24.60;14.73;;;;;;;-0.55;62.33;95890.53;5045607;27;20670;-72
2022/03/11 06:26:42;;;;;;;25.03;15.27;;;;;;;-0.98;63.32;95892.81;5038005;27;20216;-73
2022/03/11 06:29:10;;;;;;;31.00;15.93;;;;;;;-0.88;63.94;95889.75;5042651;27;20196;-72
2022/03/11 06:31:37;;;;;;;31.50;15.93;;;;;;;-0.92;63.51;95898.81;5040678;27;20235;-71
2022/03/11 06:34:04;;;;;;;30.43;15.97;;;;;;;-0.48;62.88;95902.31;5061488;27;20596;-74
2022/03/11 06:36:34;;;;;;;33.73;16.80;;;;;;;-0.25;61.75;95900.34;5055862;27;20879;-73
2022/03/11 06:39:01;;;;;;;22.87;14.50;;;;;;;0.70;61.20;95902.19;5046563;27;20207;-72
2022/03/11 06:41:29;;;;;;;14.17;9.40;;;;;;;3.65;49.87;95896.56;5046447;27;20219;-72
2022/03/11 06:43:56;;;;;;;16.27;11.27;;;;;;;7.10;43.39;95882.19;5041505;27;20216;-72
2022/03/11 06:46:23;;;;;;;14.40;10.57;;;;;;;8.79;37.75;95880.47;5030763;27;20248;-73
2022/03/11 06:48:49;;;;;;;16.57;7.27;;;;;;;10.28;33.35;95872.94;5032202;27;20383;-72
2022/03/11 06:51:16;;;;;;;22.35;9.55;;;;;;;9.93;33.04;95867.63;5045329;27;20211;-72
2022/03/11 06:53:43;;;;;;;9.90;7.15;;;;;;;10.66;31.43;95876.41;5035925;27;20881;-75
2022/03/11 06:56:10;;;;;;;5.70;5.13;;;;;;;10.15;30.75;95879.91;5030980;27;20233;-73
2022/03/11 06:58:38;;;;;;;8.10;5.80;;;;;;;9.38;33.15;95874.53;5047788;27;20206;-72
2022/03/11 07:01:06;;;;;;;9.07;6.10;;;;;;;10.35;31.22;95871.13;5041346;27;20236;-73
2022/03/11 07:03:33;;;;;;;7.40;5.97;;;;;;;10.19;30.87;95879.03;5045635;27;20206;-72
2022/03/11 07:06:00;;;;;;;6.93;6.20;;;;;;;9.08;31.95;95885.97;5048635;27;20211;-73
2022/03/11 07:08:28;;;;;;;7.13;5.75;;;;;;;8.43;33.42;95894.41;5038955;27;20211;-72
2022/03/11 07:10:54;;;;;;;6.10;5.43;;;;;;;7.29;35.88;95893.84;5049528;27;20207;-73
2022/03/11 07:13:21;;;;;;;5.80;5.07;;;;;;;6.14;36.19;95901.19;5049193;27;20266;-72
2022/03/11 07:15:49;;;;;;;5.00;4.63;;;;;;;5.18;38.28;95892.88;5038919;27;20330;-74
2022/03/11 07:18:16;;;;;;;6.93;6.23;;;;;;;4.82;40.37;95906.25;5051670;27;20258;-73
2022/03/11 07:20:43;;;;;;;5.40;5.00;;;;;;;4.51;40.22;95907.84;5048544;27;20570;-74
2022/03/11 07:23:10;;;;;;;5.50;5.00;;;;;;;4.97;39.98;95907.97;5052403;27;20199;-73
2022/03/11 07:25:36;;;;;;;7.13;5.80;;;;;;;6.79;35.68;95897.53;5046394;27;20212;-74
2022/03/11 07:28:03;;;;;;;7.25;6.35;;;;;;;7.90;34.37;95890.78;5045810;27;20316;-73
2022/03/11 07:30:30;;;;;;;7.10;6.13;;;;;;;9.62;33.03;95882.59;5054021;27;20223;-73
2022/03/11 07:32:58;;;;;;;12.02;6.10;;;;;;;11.44;29.89;95878.88;5048718;27;20288;-71
2022/03/11 07:35:25;;;;;;;7.32;6.63;;;;;;;10.34;30.21;95869.44;5044314;27;21229;-74
2022/03/11 07:37:52;;;;;;;7.05;6.45;;;;;;;11.00;29.31;95882.44;5048743;27;20785;-72
2022/03/11 07:40:18;;;;;;;6.32;5.68;;;;;;;10.19;29.67;95879.03;5041895;27;20263;-73
2022/03/11 07:42:45;;;;;;;6.88;6.28;;;;;;;9.95;30.22;95882.00;5044359;27;20294;-73
2022/03/11 07:45:13;;;;;;;6.53;5.93;;;;;;;11.64;27.62;95875.84;5044558;27;20584;-73
2022/03/11 07:47:41;;;;;;;7.10;5.65;;;;;;;11.90;27.71;95867.56;5035541;27;20287;-74
2022/03/11 07:50:10;;;;;;;8.88;6.38;;;;;;;11.18;28.04;95876.94;5053462;27;20217;-72
2022/03/11 07:52:38;;;;;;;6.57;5.78;;;;;;;10.91;29.28;95875.00;5047889;27;20213;-72
2022/03/11 07:55:06;;;;;;;13.60;7.03;;;;;;;12.40;27.49;95870.47;5042576;27;20203;-74
2022/03/11 07:57:33;;;;;;;7.25;6.47;;;;;;;10.48;28.28;95875.06;5041140;27;20663;-75
2022/03/11 08:00:01;;;;;;;7.22;6.53;;;;;;;9.11;30.59;95867.34;5046661;27;20207;-74
2022/03/11 08:02:29;;;;;;;7.20;6.22;;;;;;;8.33;31.55;95888.66;5042521;27;20672;-69
2022/03/11 08:04:57;;;;;;;13.75;8.25;;;;;;;7.18;34.57;95884.66;5034413;27;20203;-69
2022/03/11 08:07:25;;;;;;;16.77;9.38;;;;;;;7.11;42.97;95891.44;5051168;27;20203;-70
2022/03/11 08:09:52;;;;;;;14.32;8.55;;;;;;;6.51;40.37;95877.47;5043087;27;20204;-70
2022/03/11 08:12:19;;;;;;;12.47;8.53;;;;;;;5.53;39.39;95879.41;5040182;27;20230;-69
2022/03/11 08:14:46;;;;;;;9.33;6.70;;;;;;;3.99;41.88;95902.59;5045390;27;20674;-73
2022/03/11 08:17:13;;;;;;;10.23;6.80;;;;;;;3.69;42.39;95894.91;5045883;27;20219;-72
2022/03/11 08:19:40;;;;;;;10.10;6.97;;;;;;;2.83;43.55;95892.53;5045167;27;20202;-72
2022/03/11 08:22:07;;;;;;;10.40;6.73;;;;;;;2.24;45.72;95895.25;5045538;27;20261;-72
2022/03/11 08:24:35;;;;;;;8.63;6.83;;;;;;;3.95;44.20;95892.53;5068638;27;20195;-72
2022/03/11 08:27:02;;;;;;;8.77;7.80;;;;;;;5.36;39.94;95880.28;5067562;27;20191;-72
2022/03/11 08:29:33;;;;;;;8.17;6.40;;;;;;;5.97;38.79;95867.59;5060385;27;20203;-72
2022/03/11 08:32:02;;;;;;;11.77;6.10;;;;;;;8.17;34.66;95872.75;5067742;27;20199;-75
2022/03/11 08:34:29;;;;;;;7.13;6.00;;;;;;;8.34;32.12;95875.13;5059925;27;20203;-71
2022/03/11 08:36:56;;;;;;;10.50;6.77;;;;;;;9.61;31.64;95870.75;5057114;27;20238;-71
2022/03/11 08:39:23;;;;;;;6.90;6.20;;;;;;;8.95;31.85;95874.31;5063170;27;20292;-72
2022/03/11 08:41:51;;;;;;;10.87;8.10;;;;;;;8.37;33.57;95876.78;5064733;27;20611;-72
2022/03/11 08:44:18;;;;;;;12.00;6.57;;;;;;;7.81;33.67;95879.06;5051706;27;20204;-73
2022/03/11 08:46:45;;;;;;;8.77;6.13;;;;;;;6.80;35.23;95868.91;5050374;27;20583;-74
2022/03/11 08:49:12;;;;;;;10.87;7.03;;;;;;;6.59;35.68;95865.66;5058337;27;20208;-72
2022/03/11 08:51:39;;;;;;;7.30;5.90;;;;;;;6.77;35.55;95873.13;5050569;27;20210;-74
2022/03/11 08:54:06;;;;;;;7.47;6.60;;;;;;;6.65;34.93;95873.22;5056479;27;20671;-72
2022/03/11 08:56:33;;;;;;;7.60;6.50;;;;;;;8.57;33.14;95857.09;5048654;27;20863;-71
2022/03/11 08:59:01;;;;;;;7.03;6.33;;;;;;;9.69;32.06;95848.59;5033743;27;20873;-71
2022/03/11 09:01:28;;;;;;;6.75;5.88;;;;;;;10.56;29.63;95850.34;5037046;27;20207;-72
2022/03/11 09:03:55;;;;;;;6.50;5.90;;;;;;;9.07;30.50;95864.00;5036660;27;20754;-71
2022/03/11 09:06:22;;;;;;;13.13;8.13;;;;;;;8.45;32.84;95863.16;5041518;27;20267;-72
2022/03/11 09:08:49;;;;;;;11.17;8.53;;;;;;;7.43;33.75;95871.78;5028360;27;20204;-72
2022/03/11 09:11:16;;;;;;;10.73;7.03;;;;;;;7.27;36.04;95864.34;5037540;27;20300;-71
2022/03/11 09:13:43;;;;;;;12.07;7.27;;;;;;;6.94;35.14;95865.44;5030097;27;20287;-71
2022/03/11 09:16:11;;;;;;;12.30;9.77;;;;;;;6.71;35.35;95871.47;5035639;27;20199;-71
2022/03/11 09:18:38;;;;;;;8.30;7.50;;;;;;;6.29;36.74;95874.22;5034554;27;20242;-71
2022/03/11 09:21:05;;;;;;;19.77;6.97;;;;;;;5.59;36.87;95874.38;5025690;27;20819;-72
2022/03/11 09:23:32;;;;;;;9.73;5.50;;;;;;;5.52;37.20;95870.16;5030582;27;20609;-71
2022/03/11 09:25:58;;;;;;;16.50;6.17;;;;;;;5.28;37.76;95873.56;5029034;27;20203;-72
2022/03/11 09:28:25;;;;;;;6.27;5.67;;;;;;;4.72;38.42;95867.63;5035514;27;20199;-72
2022/03/11 09:30:52;;;;;;;6.03;5.40;;;;;;;4.73;39.12;95874.34;5027501;27;20234;-72
2022/03/11 09:33:21;;;;;;;6.87;6.13;;;;;;;3.79;38.95;95884.06;5034086;27;20199;-73
2022/03/11 09:35:48;;;;;;;7.20;6.23;;;;;;;2.59;42.09;95875.56;5051992;27;20662;-71
2022/03/11 09:38:14;;;;;;;9.90;5.90;;;;;;;3.08;42.99;95881.88;5038638;27;20226;-71
2022/03/11 09:40:43;;;;;;;6.37;5.37;;;;;;;3.16;41.42;95881.97;5030623;27;20825;-72
2022/03/11 09:43:12;;;;;;;10.33;6.53;;;;;;;3.41;40.56;95872.09;5024053;27;20207;-71
2022/03/11 09:45:40;;;;;;;7.67;5.90;;;;;;;3.37;41.24;95869.56;5036948;27;20291;-71
2022/03/11 09:48:08;;;;;;;7.00;5.80;;;;;;;3.27;40.56;95868.63;5029669;27;20199;-72
2022/03/11 09:50:36;;;;;;;7.40;6.03;;;;;;;3.65;41.41;95876.44;5034903;27;20227;-73
2022/03/11 09:53:03;;;;;;;11.20;6.67;;;;;;;3.66;41.93;95874.78;5038538;27;20291;-72
2022/03/11 09:55:30;;;;;;;6.97;5.60;;;;;;;3.78;40.46;95877.34;5047315;27;20211;-74
2022/03/11 09:57:57;;;;;;;6.30;5.80;;;;;;;3.75;40.75;95872.28;5054811;27;20228;-74
2022/03/11 10:00:24;;;;;;;6.17;5.57;;;;;;;3.55;40.48;95878.88;5061581;27;20215;-73
2022/03/11 10:02:51;;;;;;;6.00;5.50;;;;;;;3.34;40.93;95875.41;5052587;27;20200;-71
2022/03/11 10:05:18;;;;;;;8.63;5.47;;;;;;;3.07;39.92;95875.19;5054071;27;20283;-71
2022/03/11 10:07:59;;;;;;;6.70;6.10;;;;;;;2.69;41.62;95863.13;5044823;27;20199;-73
2022/03/11 10:10:26;;;;;;;6.33;5.73;;;;;;;2.92;41.45;95865.84;5039932;27;20223;-72
2022/03/11 10:12:53;;;;;;;6.60;6.00;;;;;;;2.96;41.59;95871.75;5051106;27;20206;-74
2022/03/11 10:15:27;;;;;;;6.90;6.17;;;;;;;2.62;41.94;95868.06;5040456;27;20209;-72
2022/03/11 10:17:54;;;;;;;7.13;6.30;;;;;;;2.38;43.06;95873.69;5042049;27;20294;-73
2022/03/11 10:20:22;;;;;;;12.50;6.87;;;;;;;2.60;42.89;95868.06;5034581;27;20585;-73
2022/03/11 10:22:50;;;;;;;10.70;6.30;;;;;;;2.92;42.63;95862.50;5035239;27;20887;-72
2022/03/11 10:25:19;;;;;;;10.83;6.50;;;;;;;3.13;42.61;95862.69;5044471;27;22842;-72
2022/03/11 10:27:56;;;;;;;7.43;6.87;;;;;;;3.35;43.11;95862.00;5041426;27;21263;-72
2022/03/11 10:30:23;;;;;;;7.90;6.17;;;;;;;3.46;41.78;95858.72;5036032;27;20235;-73
2022/03/11 10:32:51;;;;;;;6.77;6.07;;;;;;;3.36;42.48;95862.84;5039180;27;20256;-72
2022/03/11 10:35:19;;;;;;;16.23;10.23;;;;;;;3.33;41.21;95858.63;5048839;27;20225;-73
2022/03/11 10:38:02;;;;;;;25.37;10.63;;;;;;;2.96;42.82;95862.56;5056996;27;20318;-72
2022/03/11 10:40:30;;;;;;;14.67;7.30;;;;;;;2.88;43.63;95853.25;5059835;27;20203;-73
2022/03/11 10:43:15;;;;;;;29.10;17.30;;;;;;;2.91;43.68;95853.28;5065072;27;20201;-71
2022/03/11 10:45:47;;;;;;;19.27;12.37;;;;;;;2.90;43.14;95859.97;5054326;27;20199;-72
2022/03/11 10:48:15;;;;;;;11.37;8.00;;;;;;;2.58;43.40;95854.66;5053555;27;20207;-72
2022/03/11 10:50:42;;;;;;;9.37;7.40;;;;;;;2.35;43.01;95856.94;5065430;27;20294;-71
2022/03/11 10:53:12;;;;;;;23.30;7.53;;;;;;;2.67;43.47;95857.25;5053484;27;21146;-72
2022/03/11 10:55:42;;;;;;;13.00;7.17;;;;;;;2.62;43.66;95853.88;5042497;27;20822;-71
2022/03/11 10:58:16;;;;;;;8.30;6.27;;;;;;;2.79;42.98;95853.16;5063079;27;20306;-72
2022/03/11 11:00:44;;;;;;;10.13;6.90;;;;;;;2.81;42.01;95849.00;5056047;27;20214;-73
2022/03/11 11:03:13;;;;;;;18.70;7.40;;;;;;;2.91;41.56;95839.06;5053709;27;20208;-71
2022/03/11 11:05:41;;;;;;;13.53;6.63;;;;;;;2.89;43.14;95839.88;5055068;27;20200;-71
2022/03/11 11:08:10;;;;;;;17.10;7.70;;;;;;;2.43;42.71;95839.47;5041200;27;20608;-73
2022/03/11 11:10:38;;;;;;;10.43;6.73;;;;;;;2.41;42.85;95841.13;5042421;27;20207;-73
2022/03/11 11:13:09;;;;;;;7.70;6.20;;;;;;;2.48;42.22;95836.97;5035128;27;20678;-72
2022/03/11 11:15:38;;;;;;;6.87;6.07;;;;;;;2.47;43.62;95836.16;5028321;27;20199;-72
2022/03/11 11:18:09;;;;;;;9.73;7.37;;;;;;;2.36;44.58;95837.72;5030895;27;20283;-73
2022/03/11 11:20:45;;;;;;;11.73;6.40;;;;;;;2.65;42.91;95836.34;5030604;27;20223;-71
2022/03/11 11:23:15;;;;;;;10.87;7.60;;;;;;;2.36;43.13;95835.19;5028296;27;20207;-73
2022/03/11 11:25:43;;;;;;;8.40;5.33;;;;;;;2.34;43.02;95842.69;5025954;27;20214;-75
2022/03/11 11:28:12;;;;;;;10.27;6.57;;;;;;;1.70;41.91;95843.63;5034583;27;20202;-73